sensor_id;sensor_type;location;lat;lon;timestamp;pressure;altitude;pressure_sealevel;temperature;humidity
13695;BME280;6919;52.344;14.518;2023-02-17T00:00:14;101067.19;;;7.60;100.00
13695;BME280;6919;52.344;14.518;2023-02-17T00:02:42;101072.44;;;7.50;100.00
13695;BME280;6919;52.344;14.518;2023-02-17T00:05:12;101068.88;;;7.61;100.00
13695;BME280;6919;52.344;14.518;2023-02-17T00:07:41;101067.69;;;7.54;100.00
13695;BME280;6919;52.344;14.518;2023-02-17T00:10:10;101062.06;;;7.68;100.00
13695;BME280;6919;52.344;14.518;2023-02-17T00:12:38;101071.06;;;7.67;100.00
13695;BME280;6919;52.344;14.518;2023-02-17T00:15:07;101068.63;;;7.64;100.00
13695;BME280;6919;52.344;14.518;2023-02-17T00:17:36;101072.03;;;7.66;100.00
13695;BME280;6919;52.344;14.518;2023-02-17T00:20:06;101068.88;;;7.61;100.00
13695;BME280;6919;52.344;14.518;2023-02-17T00:22:36;101059.28;;;7.69;100.00
13695;BME280;6919;52.344;14.518;2023-02-17T00:25:05;101055.03;;;7.78;100.00
13695;BME280;6919;52.344;14.518;2023-02-17T00:27:34;101051.56;;;7.87;100.00
13695;BME280;6919;52.344;14.518;2023-02-17T00:30:03;101053.69;;;7.72;100.00
13695;BME280;6919;52.344;14.518;2023-02-17T00:32:32;101042.53;;;7.78;100.00
13695;BME280;6919;52.344;14.518;2023-02-17T00:35:00;101046.50;;;7.84;100.00
13695;BME280;6919;52.344;14.518;2023-02-17T00:37:29;101048.91;;;7.98;100.00
13695;BME280;6919;52.344;14.518;2023-02-17T00:39:58;101042.63;;;7.88;100.00
13695;BME280;6919;52.344;14.518;2023-02-17T00:42:27;101039.91;;;7.99;100.00
13695;BME280;6919;52.344;14.518;2023-02-17T00:44:55;101047.66;;;8.02;100.00
13695;BME280;6919;52.344;14.518;2023-02-17T00:47:24;101041.59;;;8.00;100.00
13695;BME280;6919;52.344;14.518;2023-02-17T00:49:52;101043.03;;;8.04;100.00
13695;BME280;6919;52.344;14.518;2023-02-17T00:52:21;101043.28;;;8.01;100.00
13695;BME280;6919;52.344;14.518;2023-02-17T00:54:49;101045.66;;;8.15;100.00
13695;BME280;6919;52.344;14.518;2023-02-17T00:57:19;101038.28;;;8.07;100.00
13695;BME280;6919;52.344;14.518;2023-02-17T00:59:48;101037.44;;;8.07;100.00
13695;BME280;6919;52.344;14.518;2023-02-17T01:02:16;101035.38;;;7.99;100.00
13695;BME280;6919;52.344;14.518;2023-02-17T01:04:45;101019.25;;;8.01;100.00
13695;BME280;6919;52.344;14.518;2023-02-17T01:07:13;101023.50;;;8.03;100.00
13695;BME280;6919;52.344;14.518;2023-02-17T01:09:42;101014.13;;;8.09;100.00
13695;BME280;6919;52.344;14.518;2023-02-17T01:12:11;101011.50;;;7.98;100.00
13695;BME280;6919;52.344;14.518;2023-02-17T01:14:41;101013.03;;;8.11;100.00
13695;BME280;6919;52.344;14.518;2023-02-17T01:17:09;101013.41;;;8.07;100.00
13695;BME280;6919;52.344;14.518;2023-02-17T01:19:38;101010.72;;;8.07;100.00
13695;BME280;6919;52.344;14.518;2023-02-17T01:22:06;101002.84;;;8.05;100.00
13695;BME280;6919;52.344;14.518;2023-02-17T01:24:35;101001.41;;;8.01;100.00
13695;BME280;6919;52.344;14.518;2023-02-17T01:27:03;101000.84;;;7.98;100.00
13695;BME280;6919;52.344;14.518;2023-02-17T01:29:32;100989.22;;;7.88;100.00
13695;BME280;6919;52.344;14.518;2023-02-17T01:32:02;100987.78;;;7.84;100.00
13695;BME280;6919;52.344;14.518;2023-02-17T01:34:31;100988.88;;;7.81;100.00
13695;BME280;6919;52.344;14.518;2023-02-17T01:36:59;100985.38;;;7.81;100.00
13695;BME280;6919;52.344;14.518;2023-02-17T01:39:28;100982.09;;;7.77;100.00
13695;BME280;6919;52.344;14.518;2023-02-17T01:41:56;100972.28;;;7.78;100.00
13695;BME280;6919;52.344;14.518;2023-02-17T01:44:25;100968.63;;;7.79;100.00
13695;BME280;6919;52.344;14.518;2023-02-17T01:46:54;100966.81;;;7.79;100.00
13695;BME280;6919;52.344;14.518;2023-02-17T01:49:30;100961.88;;;7.95;100.00
13695;BME280;6919;52.344;14.518;2023-02-17T01:52:05;100954.59;;;7.97;100.00
13695;BME280;6919;52.344;14.518;2023-02-17T01:54:39;100955.94;;;7.92;100.00
13695;BME280;6919;52.344;14.518;2023-02-17T01:57:09;100945.97;;;7.94;100.00
13695;BME280;6919;52.344;14.518;2023-02-17T01:59:40;100932.78;;;7.92;100.00
13695;BME280;6919;52.344;14.518;2023-02-17T02:02:09;100931.91;;;7.92;100.00
13695;BME280;6919;52.344;14.518;2023-02-17T02:04:41;100926.06;;;7.98;100.00
13695;BME280;6919;52.344;14.518;2023-02-17T02:07:15;100932.38;;;7.97;100.00
13695;BME280;6919;52.344;14.518;2023-02-17T02:09:48;100924.78;;;7.92;100.00
13695;BME280;6919;52.344;14.518;2023-02-17T02:12:19;100923.00;;;8.02;100.00
13695;BME280;6919;52.344;14.518;2023-02-17T02:14:49;100925.41;;;8.05;100.00
13695;BME280;6919;52.344;14.518;2023-02-17T02:17:29;100922.72;;;7.85;100.00
13695;BME280;6919;52.344;14.518;2023-02-17T02:23:21;100909.19;;;7.77;100.00
13695;BME280;6919;52.344;14.518;2023-02-17T02:26:25;100911.38;;;7.72;100.00
13695;BME280;6919;52.344;14.518;2023-02-17T02:32:03;100900.44;;;7.75;100.00
13695;BME280;6919;52.344;14.518;2023-02-17T02:34:41;100895.50;;;7.70;100.00
13695;BME280;6919;52.344;14.518;2023-02-17T02:37:15;100894.38;;;7.52;100.00
13695;BME280;6919;52.344;14.518;2023-02-17T02:39:48;100897.59;;;7.67;100.00
13695;BME280;6919;52.344;14.518;2023-02-17T02:42:22;100896.97;;;7.63;100.00
13695;BME280;6919;52.344;14.518;2023-02-17T02:44:51;100891.72;;;7.73;100.00
13695;BME280;6919;52.344;14.518;2023-02-17T02:47:45;100894.31;;;7.63;100.00
13695;BME280;6919;52.344;14.518;2023-02-17T02:50:17;100891.00;;;7.71;100.00
13695;BME280;6919;52.344;14.518;2023-02-17T02:53:03;100877.03;;;7.78;100.00
13695;BME280;6919;52.344;14.518;2023-02-17T02:55:46;100870.53;;;7.71;100.00
13695;BME280;6919;52.344;14.518;2023-02-17T02:58:21;100866.41;;;7.88;100.00
13695;BME280;6919;52.344;14.518;2023-02-17T03:00:55;100846.56;;;7.81;100.00
13695;BME280;6919;52.344;14.518;2023-02-17T03:03:32;100840.47;;;7.99;100.00
13695;BME280;6919;52.344;14.518;2023-02-17T03:06:07;100837.75;;;7.90;100.00
13695;BME280;6919;52.344;14.518;2023-02-17T03:08:42;100831.38;;;8.02;100.00
13695;BME280;6919;52.344;14.518;2023-02-17T03:11:13;100828.31;;;7.86;100.00
13695;BME280;6919;52.344;14.518;2023-02-17T03:13:42;100829.44;;;7.83;100.00
13695;BME280;6919;52.344;14.518;2023-02-17T03:16:10;100822.66;;;7.79;100.00
13695;BME280;6919;52.344;14.518;2023-02-17T03:18:40;100826.22;;;7.69;100.00
13695;BME280;6919;52.344;14.518;2023-02-17T03:21:14;100834.44;;;7.77;100.00
13695;BME280;6919;52.344;14.518;2023-02-17T03:23:43;100833.34;;;7.79;100.00
13695;BME280;6919;52.344;14.518;2023-02-17T03:26:11;100833.59;;;7.76;100.00
13695;BME280;6919;52.344;14.518;2023-02-17T03:28:40;100822.91;;;7.76;100.00
13695;BME280;6919;52.344;14.518;2023-02-17T03:31:08;100833.34;;;7.79;100.00
13695;BME280;6919;52.344;14.518;2023-02-17T03:33:37;100817.31;;;7.79;100.00
13695;BME280;6919;52.344;14.518;2023-02-17T03:36:06;100812.69;;;7.81;100.00
13695;BME280;6919;52.344;14.518;2023-02-17T03:38:36;100818.16;;;7.80;100.00
13695;BME280;6919;52.344;14.518;2023-02-17T03:41:05;100818.88;;;7.82;100.00
13695;BME280;6919;52.344;14.518;2023-02-17T03:43:33;100812.56;;;7.83;100.00
13695;BME280;6919;52.344;14.518;2023-02-17T03:46:02;100805.97;;;7.87;100.00
13695;BME280;6919;52.344;14.518;2023-02-17T03:48:31;100810.34;;;7.88;100.00
13695;BME280;6919;52.344;14.518;2023-02-17T03:51:09;100802.69;;;7.74;100.00
13695;BME280;6919;52.344;14.518;2023-02-17T03:53:40;100808.97;;;7.73;100.00
13695;BME280;6919;52.344;14.518;2023-02-17T03:56:09;100807.94;;;7.85;100.00
13695;BME280;6919;52.344;14.518;2023-02-17T03:58:38;100803.72;;;7.82;100.00
13695;BME280;6919;52.344;14.518;2023-02-17T04:01:07;100798.84;;;7.67;100.00
13695;BME280;6919;52.344;14.518;2023-02-17T04:03:37;100792.41;;;7.69;100.00
13695;BME280;6919;52.344;14.518;2023-02-17T04:06:07;100800.31;;;7.80;100.00
13695;BME280;6919;52.344;14.518;2023-02-17T04:08:37;100800.06;;;7.83;100.00
13695;BME280;6919;52.344;14.518;2023-02-17T04:11:08;100801.44;;;7.78;100.00
13695;BME280;6919;52.344;14.518;2023-02-17T04:13:37;100793.16;;;7.81;100.00
13695;BME280;6919;52.344;14.518;2023-02-17T04:16:06;100796.22;;;7.76;100.00
13695;BME280;6919;52.344;14.518;2023-02-17T04:18:36;100791.28;;;7.72;100.00
13695;BME280;6919;52.344;14.518;2023-02-17T04:21:06;100774.47;;;7.81;100.00
13695;BME280;6919;52.344;14.518;2023-02-17T04:23:35;100771.34;;;7.76;100.00
13695;BME280;6919;52.344;14.518;2023-02-17T04:26:06;100776.44;;;7.79;100.00
13695;BME280;6919;52.344;14.518;2023-02-17T04:28:37;100774.78;;;7.87;100.00
13695;BME280;6919;52.344;14.518;2023-02-17T04:31:07;100778.63;;;7.94;100.00
13695;BME280;6919;52.344;14.518;2023-02-17T04:33:38;100778.50;;;7.96;100.00
13695;BME280;6919;52.344;14.518;2023-02-17T04:36:06;100774.13;;;7.95;100.00
13695;BME280;6919;52.344;14.518;2023-02-17T04:38:35;100781.28;;;7.94;100.00
13695;BME280;6919;52.344;14.518;2023-02-17T04:41:06;100780.00;;;7.89;100.00
13695;BME280;6919;52.344;14.518;2023-02-17T04:43:34;100789.69;;;7.90;100.00
13695;BME280;6919;52.344;14.518;2023-02-17T04:46:03;100800.78;;;7.65;100.00
13695;BME280;6919;52.344;14.518;2023-02-17T04:48:32;100806.91;;;7.76;100.00
13695;BME280;6919;52.344;14.518;2023-02-17T04:51:01;100794.81;;;7.72;100.00
13695;BME280;6919;52.344;14.518;2023-02-17T04:53:29;100799.28;;;7.72;100.00
13695;BME280;6919;52.344;14.518;2023-02-17T04:55:58;100791.41;;;7.70;100.00
13695;BME280;6919;52.344;14.518;2023-02-17T04:58:27;100787.44;;;7.65;100.00
13695;BME280;6919;52.344;14.518;2023-02-17T05:00:58;100790.38;;;7.62;100.00
13695;BME280;6919;52.344;14.518;2023-02-17T05:03:27;100784.47;;;7.58;100.00
13695;BME280;6919;52.344;14.518;2023-02-17T05:05:55;100786.00;;;7.61;100.00
13695;BME280;6919;52.344;14.518;2023-02-17T05:08:24;100782.19;;;7.54;100.00
13695;BME280;6919;52.344;14.518;2023-02-17T05:10:53;100783.16;;;7.53;100.00
13695;BME280;6919;52.344;14.518;2023-02-17T05:13:21;100787.13;;;7.38;100.00
13695;BME280;6919;52.344;14.518;2023-02-17T05:15:51;100787.59;;;7.43;100.00
13695;BME280;6919;52.344;14.518;2023-02-17T05:18:20;100796.31;;;7.45;100.00
13695;BME280;6919;52.344;14.518;2023-02-17T05:20:48;100786.34;;;7.47;100.00
13695;BME280;6919;52.344;14.518;2023-02-17T05:23:17;100779.31;;;7.46;100.00
13695;BME280;6919;52.344;14.518;2023-02-17T05:25:45;100777.63;;;7.45;100.00
13695;BME280;6919;52.344;14.518;2023-02-17T05:28:14;100799.81;;;7.45;100.00
13695;BME280;6919;52.344;14.518;2023-02-17T05:30:42;100785.34;;;7.48;100.00
13695;BME280;6919;52.344;14.518;2023-02-17T05:33:12;100773.38;;;7.42;100.00
13695;BME280;6919;52.344;14.518;2023-02-17T05:35:40;100771.31;;;7.46;100.00
13695;BME280;6919;52.344;14.518;2023-02-17T05:38:09;100769.41;;;7.78;100.00
13695;BME280;6919;52.344;14.518;2023-02-17T05:40:37;100762.94;;;7.50;100.00
13695;BME280;6919;52.344;14.518;2023-02-17T05:43:06;100766.69;;;7.48;100.00
13695;BME280;6919;52.344;14.518;2023-02-17T05:45:35;100776.91;;;7.43;100.00
13695;BME280;6919;52.344;14.518;2023-02-17T05:48:03;100777.09;;;7.51;100.00
13695;BME280;6919;52.344;14.518;2023-02-17T05:50:33;100778.47;;;7.45;100.00
13695;BME280;6919;52.344;14.518;2023-02-17T05:53:02;100777.69;;;7.54;100.00
13695;BME280;6919;52.344;14.518;2023-02-17T05:55:30;100782.03;;;7.55;100.00
13695;BME280;6919;52.344;14.518;2023-02-17T05:57:59;100775.53;;;7.48;100.00
13695;BME280;6919;52.344;14.518;2023-02-17T06:00:28;100768.19;;;7.61;100.00
13695;BME280;6919;52.344;14.518;2023-02-17T06:02:56;100779.97;;;7.59;100.00
13695;BME280;6919;52.344;14.518;2023-02-17T06:05:25;100765.22;;;7.85;100.00
13695;BME280;6919;52.344;14.518;2023-02-17T06:07:55;100767.25;;;7.72;100.00
13695;BME280;6919;52.344;14.518;2023-02-17T06:10:23;100760.09;;;7.72;100.00
13695;BME280;6919;52.344;14.518;2023-02-17T06:12:52;100761.28;;;7.79;100.00
13695;BME280;6919;52.344;14.518;2023-02-17T06:15:20;100766.56;;;7.70;100.00
13695;BME280;6919;52.344;14.518;2023-02-17T06:17:49;100767.16;;;7.83;100.00
13695;BME280;6919;52.344;14.518;2023-02-17T06:20:18;100773.75;;;7.79;100.00
13695;BME280;6919;52.344;14.518;2023-02-17T06:22:46;100771.09;;;7.79;100.00
13695;BME280;6919;52.344;14.518;2023-02-17T06:25:16;100763.88;;;8.00;100.00
13695;BME280;6919;52.344;14.518;2023-02-17T06:27:45;100774.53;;;7.90;100.00
13695;BME280;6919;52.344;14.518;2023-02-17T06:30:14;100762.22;;;7.99;100.00
13695;BME280;6919;52.344;14.518;2023-02-17T06:32:43;100757.38;;;7.93;100.00
13695;BME280;6919;52.344;14.518;2023-02-17T06:35:12;100751.25;;;8.02;100.00
13695;BME280;6919;52.344;14.518;2023-02-17T06:37:41;100757.69;;;7.99;100.00
13695;BME280;6919;52.344;14.518;2023-02-17T06:40:11;100760.09;;;8.02;100.00
13695;BME280;6919;52.344;14.518;2023-02-17T06:42:41;100753.81;;;8.03;100.00
13695;BME280;6919;52.344;14.518;2023-02-17T06:45:10;100754.06;;;8.00;100.00
13695;BME280;6919;52.344;14.518;2023-02-17T06:47:38;100752.94;;;8.03;100.00
13695;BME280;6919;52.344;14.518;2023-02-17T06:50:08;100754.97;;;8.10;100.00
13695;BME280;6919;52.344;14.518;2023-02-17T06:52:37;100753.94;;;8.02;100.00
13695;BME280;6919;52.344;14.518;2023-02-17T06:55:06;100750.00;;;8.06;100.00
13695;BME280;6919;52.344;14.518;2023-02-17T06:57:34;100754.41;;;8.16;100.00
13695;BME280;6919;52.344;14.518;2023-02-17T07:00:06;100751.69;;;8.07;100.00
13695;BME280;6919;52.344;14.518;2023-02-17T07:02:36;100745.31;;;7.98;100.00
13695;BME280;6919;52.344;14.518;2023-02-17T07:05:06;100750.91;;;8.16;100.00
13695;BME280;6919;52.344;14.518;2023-02-17T07:07:35;100750.63;;;8.19;100.00
13695;BME280;6919;52.344;14.518;2023-02-17T07:10:04;100757.31;;;8.13;100.00
13695;BME280;6919;52.344;14.518;2023-02-17T07:12:33;100758.19;;;8.14;100.00
13695;BME280;6919;52.344;14.518;2023-02-17T07:15:01;100752.44;;;8.18;100.00
13695;BME280;6919;52.344;14.518;2023-02-17T07:17:31;100751.84;;;8.15;100.00
13695;BME280;6919;52.344;14.518;2023-02-17T07:20:00;100746.97;;;8.20;100.00
13695;BME280;6919;52.344;14.518;2023-02-17T07:22:28;100752.56;;;8.17;100.00
13695;BME280;6919;52.344;14.518;2023-02-17T07:24:57;100744.13;;;8.12;100.00
13695;BME280;6919;52.344;14.518;2023-02-17T07:27:25;100742.00;;;8.06;100.00
13695;BME280;6919;52.344;14.518;2023-02-17T07:29:54;100727.41;;;8.19;100.00
13695;BME280;6919;52.344;14.518;2023-02-17T07:32:23;100717.13;;;8.15;100.00
13695;BME280;6919;52.344;14.518;2023-02-17T07:34:52;100723.25;;;8.26;100.00
13695;BME280;6919;52.344;14.518;2023-02-17T07:37:21;100724.88;;;8.18;100.00
13695;BME280;6919;52.344;14.518;2023-02-17T07:39:49;100717.59;;;8.20;100.00
13695;BME280;6919;52.344;14.518;2023-02-17T07:42:18;100728.88;;;8.23;100.00
13695;BME280;6919;52.344;14.518;2023-02-17T07:44:47;100731.13;;;8.28;100.00
13695;BME280;6919;52.344;14.518;2023-02-17T07:47:15;100728.19;;;8.31;100.00
13695;BME280;6919;52.344;14.518;2023-02-17T07:49:44;100727.53;;;8.48;100.00
13695;BME280;6919;52.344;14.518;2023-02-17T07:52:15;100734.84;;;8.46;100.00
13695;BME280;6919;52.344;14.518;2023-02-17T07:54:44;100737.38;;;8.47;100.00
13695;BME280;6919;52.344;14.518;2023-02-17T07:57:13;100734.53;;;8.30;100.00
13695;BME280;6919;52.344;14.518;2023-02-17T07:59:41;100729.75;;;8.43;100.00
13695;BME280;6919;52.344;14.518;2023-02-17T08:02:10;100732.69;;;8.40;100.00
13695;BME280;6919;52.344;14.518;2023-02-17T08:04:42;100735.97;;;8.53;100.00
13695;BME280;6919;52.344;14.518;2023-02-17T08:07:10;100732.88;;;8.48;100.00
13695;BME280;6919;52.344;14.518;2023-02-17T08:09:40;100725.81;;;8.47;100.00
13695;BME280;6919;52.344;14.518;2023-02-17T08:12:26;100719.25;;;8.51;100.00
13695;BME280;6919;52.344;14.518;2023-02-17T08:15:12;100714.19;;;8.48;100.00
13695;BME280;6919;52.344;14.518;2023-02-17T08:17:41;100713.59;;;8.54;100.00
13695;BME280;6919;52.344;14.518;2023-02-17T08:20:11;100706.97;;;8.48;100.00
13695;BME280;6919;52.344;14.518;2023-02-17T08:22:41;100704.19;;;8.50;100.00
13695;BME280;6919;52.344;14.518;2023-02-17T08:25:11;100710.81;;;8.65;100.00
13695;BME280;6919;52.344;14.518;2023-02-17T08:27:40;100709.13;;;8.54;100.00
13695;BME280;6919;52.344;14.518;2023-02-17T08:30:09;100713.50;;;8.65;100.00
13695;BME280;6919;52.344;14.518;2023-02-17T08:32:38;100711.25;;;8.70;100.00
13695;BME280;6919;52.344;14.518;2023-02-17T08:35:07;100707.03;;;8.58;100.00
13695;BME280;6919;52.344;14.518;2023-02-17T08:37:36;100706.88;;;8.69;100.00
13695;BME280;6919;52.344;14.518;2023-02-17T08:40:06;100707.56;;;8.61;100.00
13695;BME280;6919;52.344;14.518;2023-02-17T08:42:36;100703.63;;;8.75;100.00
13695;BME280;6919;52.344;14.518;2023-02-17T08:45:06;100697.47;;;8.74;100.00
13695;BME280;6919;52.344;14.518;2023-02-17T08:47:35;100703.34;;;8.78;100.00
13695;BME280;6919;52.344;14.518;2023-02-17T08:50:05;100695.66;;;8.84;100.00
13695;BME280;6919;52.344;14.518;2023-02-17T08:52:34;100704.22;;;8.78;100.00
13695;BME280;6919;52.344;14.518;2023-02-17T08:55:03;100692.66;;;8.78;100.00
13695;BME280;6919;52.344;14.518;2023-02-17T08:57:32;100689.84;;;8.89;100.00
13695;BME280;6919;52.344;14.518;2023-02-17T09:00:05;100687.59;;;8.75;100.00
13695;BME280;6919;52.344;14.518;2023-02-17T09:02:34;100678.16;;;8.80;100.00
13695;BME280;6919;52.344;14.518;2023-02-17T09:05:04;100684.50;;;8.79;100.00
13695;BME280;6919;52.344;14.518;2023-02-17T09:07:32;100669.88;;;8.83;100.00
13695;BME280;6919;52.344;14.518;2023-02-17T09:10:01;100667.63;;;8.98;100.00
13695;BME280;6919;52.344;14.518;2023-02-17T09:12:31;100668.75;;;9.05;100.00
13695;BME280;6919;52.344;14.518;2023-02-17T09:14:59;100657.63;;;9.10;100.00
13695;BME280;6919;52.344;14.518;2023-02-17T09:17:29;100659.25;;;9.20;100.00
13695;BME280;6919;52.344;14.518;2023-02-17T09:19:58;100647.03;;;9.18;100.00
13695;BME280;6919;52.344;14.518;2023-02-17T09:22:26;100639.53;;;9.21;100.00
13695;BME280;6919;52.344;14.518;2023-02-17T09:24:58;100638.69;;;9.30;100.00
13695;BME280;6919;52.344;14.518;2023-02-17T09:27:27;100637.41;;;9.34;100.00
13695;BME280;6919;52.344;14.518;2023-02-17T09:29:56;100633.78;;;9.26;100.00
13695;BME280;6919;52.344;14.518;2023-02-17T09:32:24;100627.03;;;9.22;100.00
13695;BME280;6919;52.344;14.518;2023-02-17T09:34:54;100626.78;;;9.15;100.00
13695;BME280;6919;52.344;14.518;2023-02-17T09:37:23;100623.03;;;9.35;100.00
13695;BME280;6919;52.344;14.518;2023-02-17T09:39:52;100614.03;;;9.36;100.00
13695;BME280;6919;52.344;14.518;2023-02-17T09:42:22;100604.78;;;9.58;100.00
13695;BME280;6919;52.344;14.518;2023-02-17T09:44:57;100599.09;;;9.34;100.00
13695;BME280;6919;52.344;14.518;2023-02-17T09:47:31;100589.25;;;9.34;100.00
13695;BME280;6919;52.344;14.518;2023-02-17T09:50:06;100591.91;;;9.34;100.00
13695;BME280;6919;52.344;14.518;2023-02-17T09:52:40;100581.88;;;9.46;100.00
13695;BME280;6919;52.344;14.518;2023-02-17T09:55:17;100570.47;;;9.44;100.00
13695;BME280;6919;52.344;14.518;2023-02-17T09:57:52;100561.81;;;9.59;100.00
13695;BME280;6919;52.344;14.518;2023-02-17T10:00:24;100553.69;;;9.51;100.00
13695;BME280;6919;52.344;14.518;2023-02-17T10:02:59;100548.75;;;9.47;100.00
13695;BME280;6919;52.344;14.518;2023-02-17T10:05:37;100549.66;;;9.65;100.00
13695;BME280;6919;52.344;14.518;2023-02-17T10:08:11;100536.13;;;9.66;100.00
13695;BME280;6919;52.344;14.518;2023-02-17T10:10:46;100540.88;;;9.72;100.00
13695;BME280;6919;52.344;14.518;2023-02-17T10:13:19;100533.28;;;9.68;100.00
13695;BME280;6919;52.344;14.518;2023-02-17T10:15:51;100515.78;;;9.73;100.00
13695;BME280;6919;52.344;14.518;2023-02-17T10:18:25;100524.53;;;9.75;100.00
13695;BME280;6919;52.344;14.518;2023-02-17T10:21:01;100513.28;;;9.89;100.00
13695;BME280;6919;52.344;14.518;2023-02-17T10:23:33;100514.25;;;9.88;100.00
13695;BME280;6919;52.344;14.518;2023-02-17T10:26:12;100514.25;;;9.88;100.00
13695;BME280;6919;52.344;14.518;2023-02-17T10:28:49;100521.94;;;9.83;100.00
13695;BME280;6919;52.344;14.518;2023-02-17T10:31:25;100501.19;;;9.85;100.00
13695;BME280;6919;52.344;14.518;2023-02-17T10:34:01;100509.31;;;9.93;100.00
13695;BME280;6919;52.344;14.518;2023-02-17T10:36:41;100495.00;;;9.85;100.00
13695;BME280;6919;52.344;14.518;2023-02-17T10:42:21;100499.59;;;9.92;100.00
13695;BME280;6919;52.344;14.518;2023-02-17T10:44:53;100499.66;;;10.00;100.00
13695;BME280;6919;52.344;14.518;2023-02-17T10:47:26;100486.88;;;9.94;100.00
13695;BME280;6919;52.344;14.518;2023-02-17T10:49:55;100494.00;;;10.03;100.00
13695;BME280;6919;52.344;14.518;2023-02-17T10:52:34;100490.72;;;10.09;100.00
13695;BME280;6919;52.344;14.518;2023-02-17T10:55:08;100475.41;;;10.19;100.00
13695;BME280;6919;52.344;14.518;2023-02-17T10:57:53;100447.25;;;10.15;100.00
13695;BME280;6919;52.344;14.518;2023-02-17T11:00:23;100450.63;;;10.17;100.00
13695;BME280;6919;52.344;14.518;2023-02-17T11:02:53;100442.34;;;10.11;100.00
13695;BME280;6919;52.344;14.518;2023-02-17T11:05:24;100436.53;;;10.15;100.00
13695;BME280;6919;52.344;14.518;2023-02-17T11:08:01;100427.81;;;10.13;100.00
13695;BME280;6919;52.344;14.518;2023-02-17T11:10:33;100418.25;;;10.11;100.00
13695;BME280;6919;52.344;14.518;2023-02-17T11:13:14;100418.31;;;10.01;100.00
13695;BME280;6919;52.344;14.518;2023-02-17T11:15:52;100416.63;;;10.18;100.00
13695;BME280;6919;52.344;14.518;2023-02-17T11:18:27;100410.50;;;10.25;100.00
13695;BME280;6919;52.344;14.518;2023-02-17T11:21:01;100400.28;;;10.29;100.00
13695;BME280;6919;52.344;14.518;2023-02-17T11:23:32;100390.94;;;10.07;100.00
13695;BME280;6919;52.344;14.518;2023-02-17T11:26:07;100398.44;;;9.86;100.00
13695;BME280;6919;52.344;14.518;2023-02-17T11:28:36;100382.13;;;9.97;100.00
13695;BME280;6919;52.344;14.518;2023-02-17T11:31:05;100379.13;;;10.00;100.00
13695;BME280;6919;52.344;14.518;2023-02-17T11:33:37;100370.63;;;10.05;100.00
13695;BME280;6919;52.344;14.518;2023-02-17T11:36:07;100370.88;;;10.11;100.00
13695;BME280;6919;52.344;14.518;2023-02-17T11:38:44;100347.97;;;9.99;100.00
13695;BME280;6919;52.344;14.518;2023-02-17T11:41:14;100365.03;;;9.98;100.00
13695;BME280;6919;52.344;14.518;2023-02-17T11:43:52;100356.69;;;10.01;100.00
13695;BME280;6919;52.344;14.518;2023-02-17T11:46:25;100333.38;;;10.11;100.00
13695;BME280;6919;52.344;14.518;2023-02-17T11:52:47;100322.66;;;10.11;100.00
13695;BME280;6919;52.344;14.518;2023-02-17T11:55:23;100326.50;;;10.09;100.00
13695;BME280;6919;52.344;14.518;2023-02-17T11:58:11;100312.69;;;10.21;100.00
13695;BME280;6919;52.344;14.518;2023-02-17T12:00:50;100315.66;;;10.18;100.00
13695;BME280;6919;52.344;14.518;2023-02-17T12:03:38;100327.84;;;10.13;100.00
13695;BME280;6919;52.344;14.518;2023-02-17T12:06:13;100299.88;;;10.07;100.00
13695;BME280;6919;52.344;14.518;2023-02-17T12:08:58;100301.41;;;10.18;100.00
13695;BME280;6919;52.344;14.518;2023-02-17T12:11:39;100293.63;;;10.32;100.00
13695;BME280;6919;52.344;14.518;2023-02-17T12:14:26;100272.16;;;10.24;100.00
13695;BME280;6919;52.344;14.518;2023-02-17T12:17:04;100258.66;;;10.34;100.00
13695;BME280;6919;52.344;14.518;2023-02-17T12:19:47;100231.31;;;10.30;100.00
13695;BME280;6919;52.344;14.518;2023-02-17T12:22:25;100251.81;;;10.47;100.00
13695;BME280;6919;52.344;14.518;2023-02-17T12:25:08;100226.66;;;10.32;100.00
13695;BME280;6919;52.344;14.518;2023-02-17T12:27:53;100228.47;;;10.32;100.00
13695;BME280;6919;52.344;14.518;2023-02-17T12:30:31;100212.84;;;10.19;100.00
13695;BME280;6919;52.344;14.518;2023-02-17T12:33:16;100214.59;;;10.36;100.00
13695;BME280;6919;52.344;14.518;2023-02-17T12:35:53;100190.13;;;10.31;100.00
13695;BME280;6919;52.344;14.518;2023-02-17T12:38:25;100191.16;;;10.38;100.00
13695;BME280;6919;52.344;14.518;2023-02-17T12:40:59;100182.50;;;10.52;100.00
13695;BME280;6919;52.344;14.518;2023-02-17T12:43:36;100181.81;;;10.50;100.00
13695;BME280;6919;52.344;14.518;2023-02-17T12:46:10;100173.44;;;10.53;100.00
13695;BME280;6919;52.344;14.518;2023-02-17T12:48:43;100176.66;;;10.65;100.00
13695;BME280;6919;52.344;14.518;2023-02-17T12:51:18;100164.25;;;10.72;100.00
13695;BME280;6919;52.344;14.518;2023-02-17T12:53:50;100148.66;;;10.67;100.00
13695;BME280;6919;52.344;14.518;2023-02-17T12:56:47;100141.47;;;10.84;100.00
13695;BME280;6919;52.344;14.518;2023-02-17T12:59:21;100159.91;;;10.87;100.00
13695;BME280;6919;52.344;14.518;2023-02-17T13:01:59;100152.03;;;10.85;100.00
13695;BME280;6919;52.344;14.518;2023-02-17T13:04:30;100130.06;;;10.82;100.00
13695;BME280;6919;52.344;14.518;2023-02-17T13:07:07;100134.59;;;11.13;100.00
13695;BME280;6919;52.344;14.518;2023-02-17T13:12:39;100109.56;;;11.21;100.00
13695;BME280;6919;52.344;14.518;2023-02-17T13:15:26;100090.66;;;11.14;100.00
13695;BME280;6919;52.344;14.518;2023-02-17T13:17:56;100101.56;;;11.13;100.00
13695;BME280;6919;52.344;14.518;2023-02-17T13:20:41;100092.31;;;11.23;100.00
13695;BME280;6919;52.344;14.518;2023-02-17T13:23:13;100084.28;;;11.23;100.00
13695;BME280;6919;52.344;14.518;2023-02-17T13:26:10;100078.81;;;11.47;100.00